sensor_id;sensor_type;location;lat;lon;timestamp;pressure;altitude;pressure_sealevel;temperature;humidity
80180;BME280;69505;52.134;5.438;2023-11-21T00:01:03;101299.72;;;5.12;100.00
80180;BME280;69505;52.134;5.438;2023-11-21T00:03:31;101296.84;;;5.16;100.00
80180;BME280;69505;52.134;5.438;2023-11-21T00:05:58;101297.84;;;5.14;100.00
80180;BME280;69505;52.134;5.438;2023-11-21T00:08:25;101296.84;;;5.16;100.00
80180;BME280;69505;52.134;5.438;2023-11-21T00:10:51;101303.06;;;5.15;100.00
80180;BME280;69505;52.134;5.438;2023-11-21T00:13:18;101299.34;;;5.19;100.00
80180;BME280;69505;52.134;5.438;2023-11-21T00:15:45;101311.88;;;5.14;100.00
80180;BME280;69505;52.134;5.438;2023-11-21T00:18:11;101308.38;;;5.14;100.00
80180;BME280;69505;52.134;5.438;2023-11-21T00:20:38;101308.25;;;5.17;100.00
80180;BME280;69505;52.134;5.438;2023-11-21T00:23:04;101305.81;;;5.12;100.00
80180;BME280;69505;52.134;5.438;2023-11-21T00:25:31;101313.03;;;5.08;100.00
80180;BME280;69505;52.134;5.438;2023-11-21T00:27:58;101312.09;;;5.09;100.00
80180;BME280;69505;52.134;5.438;2023-11-21T00:30:25;101318.00;;;5.15;100.00
80180;BME280;69505;52.134;5.438;2023-11-21T00:32:51;101321.34;;;5.18;100.00
80180;BME280;69505;52.134;5.438;2023-11-21T00:35:18;101316.06;;;5.18;100.00
80180;BME280;69505;52.134;5.438;2023-11-21T00:37:45;101321.34;;;5.18;100.00
80180;BME280;69505;52.134;5.438;2023-11-21T00:40:12;101323.06;;;5.19;100.00
80180;BME280;69505;52.134;5.438;2023-11-21T00:42:39;101319.34;;;5.23;100.00
80180;BME280;69505;52.134;5.438;2023-11-21T00:45:06;101322.22;;;5.19;100.00
80180;BME280;69505;52.134;5.438;2023-11-21T00:47:33;101328.31;;;5.19;100.00
80180;BME280;69505;52.134;5.438;2023-11-21T00:50:00;101324.13;;;5.15;100.00
80180;BME280;69505;52.134;5.438;2023-11-21T00:52:27;101318.91;;;5.14;100.00
80180;BME280;69505;52.134;5.438;2023-11-21T00:54:53;101325.97;;;5.13;100.00
80180;BME280;69505;52.134;5.438;2023-11-21T00:57:20;101333.88;;;5.13;100.00
80180;BME280;69505;52.134;5.438;2023-11-21T00:59:47;101334.88;;;5.11;100.00
80180;BME280;69505;52.134;5.438;2023-11-21T01:02:13;101334.88;;;5.11;100.00
80180;BME280;69505;52.134;5.438;2023-11-21T01:04:40;101346.38;;;5.08;100.00
80180;BME280;69505;52.134;5.438;2023-11-21T01:07:06;101350.84;;;5.06;100.00
80180;BME280;69505;52.134;5.438;2023-11-21T01:09:33;101355.34;;;5.04;100.00
80180;BME280;69505;52.134;5.438;2023-11-21T01:12:00;101352.63;;;5.05;100.00
80180;BME280;69505;52.134;5.438;2023-11-21T01:14:27;101363.97;;;5.07;100.00
80180;BME280;69505;52.134;5.438;2023-11-21T01:16:54;101360.31;;;5.10;100.00
80180;BME280;69505;52.134;5.438;2023-11-21T01:19:21;101360.47;;;5.07;100.00
80180;BME280;69505;52.134;5.438;2023-11-21T01:21:47;101361.25;;;5.09;100.00
80180;BME280;69505;52.134;5.438;2023-11-21T01:24:14;101354.94;;;5.13;100.00
80180;BME280;69505;52.134;5.438;2023-11-21T01:26:41;101356.50;;;5.17;100.00
80180;BME280;69505;52.134;5.438;2023-11-21T01:29:07;101347.66;;;5.18;100.00
80180;BME280;69505;52.134;5.438;2023-11-21T01:31:34;101351.22;;;5.17;100.00
80180;BME280;69505;52.134;5.438;2023-11-21T01:34:01;101352.94;;;5.18;100.00
80180;BME280;69505;52.134;5.438;2023-11-21T01:36:31;101364.75;;;5.28;100.00
80180;BME280;69505;52.134;5.438;2023-11-21T01:39:01;101362.91;;;5.31;100.00
80180;BME280;69505;52.134;5.438;2023-11-21T01:41:34;101362.78;;;5.34;100.00
80180;BME280;69505;52.134;5.438;2023-11-21T01:44:01;101360.13;;;5.34;100.00
80180;BME280;69505;52.134;5.438;2023-11-21T01:46:28;101362.69;;;5.35;100.00
80180;BME280;69505;52.134;5.438;2023-11-21T01:48:55;101368.81;;;5.36;100.00
80180;BME280;69505;52.134;5.438;2023-11-21T01:51:22;101370.41;;;5.40;100.00
80180;BME280;69505;52.134;5.438;2023-11-21T01:53:49;101378.00;;;5.46;100.00
80180;BME280;69505;52.134;5.438;2023-11-21T01:56:16;101367.38;;;5.47;100.00
80180;BME280;69505;52.134;5.438;2023-11-21T01:58:43;101368.09;;;5.51;100.00
80180;BME280;69505;52.134;5.438;2023-11-21T02:01:10;101371.56;;;5.52;100.00
80180;BME280;69505;52.134;5.438;2023-11-21T02:03:36;101372.28;;;5.55;100.00
80180;BME280;69505;52.134;5.438;2023-11-21T02:06:03;101376.56;;;5.58;100.00
80180;BME280;69505;52.134;5.438;2023-11-21T02:08:30;101380.97;;;5.57;100.00
80180;BME280;69505;52.134;5.438;2023-11-21T02:10:57;101387.94;;;5.58;100.00
80180;BME280;69505;52.134;5.438;2023-11-21T02:13:24;101394.88;;;5.61;100.00
80180;BME280;69505;52.134;5.438;2023-11-21T02:15:51;101400.84;;;5.64;100.00
80180;BME280;69505;52.134;5.438;2023-11-21T02:18:18;101401.47;;;5.69;100.00
80180;BME280;69505;52.134;5.438;2023-11-21T02:20:45;101407.31;;;5.76;100.00
80180;BME280;69505;52.134;5.438;2023-11-21T02:23:13;101400.91;;;5.82;100.00
80180;BME280;69505;52.134;5.438;2023-11-21T02:25:41;101406.84;;;5.85;100.00
80180;BME280;69505;52.134;5.438;2023-11-21T02:28:09;101411.16;;;5.88;100.00
80180;BME280;69505;52.134;5.438;2023-11-21T02:30:39;101405.66;;;5.93;100.00
80180;BME280;69505;52.134;5.438;2023-11-21T02:33:05;101411.78;;;5.93;100.00
80180;BME280;69505;52.134;5.438;2023-11-21T02:35:33;101414.28;;;5.96;100.00
80180;BME280;69505;52.134;5.438;2023-11-21T02:38:01;101414.16;;;5.99;100.00
80180;BME280;69505;52.134;5.438;2023-11-21T02:40:28;101411.44;;;6.01;100.00
80180;BME280;69505;52.134;5.438;2023-11-21T02:42:56;101413.06;;;6.03;100.00
80180;BME280;69505;52.134;5.438;2023-11-21T02:45:26;101416.50;;;6.05;100.00
80180;BME280;69505;52.134;5.438;2023-11-21T02:47:52;101412.06;;;6.06;100.00
80180;BME280;69505;52.134;5.438;2023-11-21T02:50:24;101412.78;;;6.09;100.00
80180;BME280;69505;52.134;5.438;2023-11-21T02:52:51;101416.09;;;6.13;100.00
80180;BME280;69505;52.134;5.438;2023-11-21T02:55:18;101415.25;;;6.13;100.00
80180;BME280;69505;52.134;5.438;2023-11-21T02:57:44;101410.75;;;6.15;100.00
80180;BME280;69505;52.134;5.438;2023-11-21T03:00:11;101408.81;;;6.18;100.00
80180;BME280;69505;52.134;5.438;2023-11-21T03:02:40;101407.97;;;6.18;100.00
80180;BME280;69505;52.134;5.438;2023-11-21T03:05:07;101413.09;;;6.21;100.00
80180;BME280;69505;52.134;5.438;2023-11-21T03:07:39;101414.66;;;6.25;100.00
80180;BME280;69505;52.134;5.438;2023-11-21T03:10:08;101418.06;;;6.27;100.00
80180;BME280;69505;52.134;5.438;2023-11-21T03:12:39;101414.34;;;6.31;100.00
80180;BME280;69505;52.134;5.438;2023-11-21T03:15:06;101412.50;;;6.33;100.00
80180;BME280;69505;52.134;5.438;2023-11-21T03:17:33;101413.25;;;6.35;100.00
80180;BME280;69505;52.134;5.438;2023-11-21T03:20:04;101420.94;;;6.40;100.00
80180;BME280;69505;52.134;5.438;2023-11-21T03:22:31;101416.44;;;6.42;100.00
80180;BME280;69505;52.134;5.438;2023-11-21T03:24:58;101423.44;;;6.43;100.00
80180;BME280;69505;52.134;5.438;2023-11-21T03:27:25;101420.69;;;6.44;100.00
80180;BME280;69505;52.134;5.438;2023-11-21T03:29:51;101411.88;;;6.45;100.00
80180;BME280;69505;52.134;5.438;2023-11-21T03:32:18;101409.16;;;6.47;100.00
80180;BME280;69505;52.134;5.438;2023-11-21T03:34:56;101413.44;;;6.49;100.00
80180;BME280;69505;52.134;5.438;2023-11-21T03:37:25;101419.63;;;6.48;100.00
80180;BME280;69505;52.134;5.438;2023-11-21T03:39:54;101424.91;;;6.48;100.00
80180;BME280;69505;52.134;5.438;2023-11-21T03:42:21;101424.91;;;6.48;100.00
80180;BME280;69505;52.134;5.438;2023-11-21T03:44:48;101432.69;;;6.52;100.00
80180;BME280;69505;52.134;5.438;2023-11-21T03:47:14;101419.41;;;6.53;100.00
80180;BME280;69505;52.134;5.438;2023-11-21T03:49:42;101428.94;;;6.56;100.00
80180;BME280;69505;52.134;5.438;2023-11-21T03:52:09;101431.59;;;6.56;100.00
80180;BME280;69505;52.134;5.438;2023-11-21T03:54:36;101434.13;;;6.57;100.00
80180;BME280;69505;52.134;5.438;2023-11-21T03:57:03;101446.25;;;6.61;100.00
80180;BME280;69505;52.134;5.438;2023-11-21T03:59:29;101444.47;;;6.62;100.00
80180;BME280;69505;52.134;5.438;2023-11-21T04:01:56;101453.19;;;6.64;100.00
80180;BME280;69505;52.134;5.438;2023-11-21T04:04:23;101456.59;;;6.66;100.00
80180;BME280;69505;52.134;5.438;2023-11-21T04:06:50;101439.88;;;6.65;100.00
80180;BME280;69505;52.134;5.438;2023-11-21T04:09:18;101462.66;;;6.68;100.00
80180;BME280;69505;52.134;5.438;2023-11-21T04:11:45;101456.41;;;6.69;100.00
80180;BME280;69505;52.134;5.438;2023-11-21T04:14:12;101465.06;;;6.73;100.00
80180;BME280;69505;52.134;5.438;2023-11-21T04:16:40;101464.03;;;6.75;100.00
80180;BME280;69505;52.134;5.438;2023-11-21T04:19:07;101462.16;;;6.77;100.00
80180;BME280;69505;52.134;5.438;2023-11-21T04:21:36;101470.88;;;6.79;100.00
80180;BME280;69505;52.134;5.438;2023-11-21T04:24:03;101472.50;;;6.82;100.00
80180;BME280;69505;52.134;5.438;2023-11-21T04:26:30;101477.69;;;6.83;100.00
80180;BME280;69505;52.134;5.438;2023-11-21T04:28:56;101476.06;;;6.81;100.00
80180;BME280;69505;52.134;5.438;2023-11-21T04:31:23;101481.13;;;6.85;100.00
80180;BME280;69505;52.134;5.438;2023-11-21T04:33:50;101480.81;;;6.91;100.00
80180;BME280;69505;52.134;5.438;2023-11-21T04:36:16;101482.50;;;6.93;100.00
80180;BME280;69505;52.134;5.438;2023-11-21T04:38:43;101488.66;;;6.93;100.00
80180;BME280;69505;52.134;5.438;2023-11-21T04:41:11;101500.00;;;6.95;100.00
80180;BME280;69505;52.134;5.438;2023-11-21T04:43:38;101495.38;;;6.99;100.00
80180;BME280;69505;52.134;5.438;2023-11-21T04:46:05;101505.94;;;6.99;100.00
80180;BME280;69505;52.134;5.438;2023-11-21T04:48:31;101505.09;;;6.98;100.00
80180;BME280;69505;52.134;5.438;2023-11-21T04:50:58;101514.50;;;7.04;100.00
80180;BME280;69505;52.134;5.438;2023-11-21T04:53:24;101509.22;;;7.04;100.00
80180;BME280;69505;52.134;5.438;2023-11-21T04:55:51;101503.78;;;7.07;100.00
80180;BME280;69505;52.134;5.438;2023-11-21T04:58:17;101496.78;;;7.06;100.00
80180;BME280;69505;52.134;5.438;2023-11-21T05:00:45;101503.69;;;7.08;100.00
80180;BME280;69505;52.134;5.438;2023-11-21T05:03:12;101501.00;;;7.10;100.00
80180;BME280;69505;52.134;5.438;2023-11-21T05:05:39;101507.06;;;7.12;100.00
80180;BME280;69505;52.134;5.438;2023-11-21T05:08:06;101507.97;;;7.11;100.00
80180;BME280;69505;52.134;5.438;2023-11-21T05:10:34;101518.28;;;7.16;100.00
80180;BME280;69505;52.134;5.438;2023-11-21T05:13:00;101515.56;;;7.17;100.00
80180;BME280;69505;52.134;5.438;2023-11-21T05:15:27;101519.00;;;7.19;100.00
80180;BME280;69505;52.134;5.438;2023-11-21T05:17:54;101519.78;;;7.21;100.00
80180;BME280;69505;52.134;5.438;2023-11-21T05:20:21;101518.81;;;7.22;100.00
80180;BME280;69505;52.134;5.438;2023-11-21T05:22:48;101527.53;;;7.24;100.00
80180;BME280;69505;52.134;5.438;2023-11-21T05:25:15;101531.81;;;7.27;100.00
80180;BME280;69505;52.134;5.438;2023-11-21T05:27:46;101530.94;;;7.26;100.00
80180;BME280;69505;52.134;5.438;2023-11-21T05:30:13;101528.16;;;7.29;100.00
80180;BME280;69505;52.134;5.438;2023-11-21T05:32:40;101530.72;;;7.31;100.00
80180;BME280;69505;52.134;5.438;2023-11-21T05:35:10;101534.22;;;7.31;100.00
80180;BME280;69505;52.134;5.438;2023-11-21T05:37:42;101542.06;;;7.33;100.00
80180;BME280;69505;52.134;5.438;2023-11-21T05:40:09;101537.78;;;7.30;100.00
80180;BME280;69505;52.134;5.438;2023-11-21T05:42:36;101550.78;;;7.35;100.00
80180;BME280;69505;52.134;5.438;2023-11-21T05:45:05;101552.41;;;7.38;100.00
80180;BME280;69505;52.134;5.438;2023-11-21T05:47:40;101554.09;;;7.39;100.00
80180;BME280;69505;52.134;5.438;2023-11-21T05:50:08;101548.72;;;7.40;100.00
80180;BME280;69505;52.134;5.438;2023-11-21T05:52:41;101558.47;;;7.40;100.00
80180;BME280;69505;52.134;5.438;2023-11-21T05:55:08;101561.88;;;7.42;100.00
80180;BME280;69505;52.134;5.438;2023-11-21T05:57:36;101562.66;;;7.44;100.00
80180;BME280;69505;52.134;5.438;2023-11-21T06:00:04;101571.34;;;7.46;100.00
80180;BME280;69505;52.134;5.438;2023-11-21T06:02:53;101574.00;;;7.46;100.00
80180;BME280;69505;52.134;5.438;2023-11-21T06:05:23;101572.13;;;7.48;100.00
80180;BME280;69505;52.134;5.438;2023-11-21T06:07:50;101578.19;;;7.50;100.00
80180;BME280;69505;52.134;5.438;2023-11-21T06:10:20;101580.72;;;7.51;100.00
80180;BME280;69505;52.134;5.438;2023-11-21T06:12:47;101585.94;;;7.53;100.00
80180;BME280;69505;52.134;5.438;2023-11-21T06:15:15;101588.44;;;7.56;100.00
80180;BME280;69505;52.134;5.438;2023-11-21T06:17:42;101582.97;;;7.59;100.00
80180;BME280;69505;52.134;5.438;2023-11-21T06:20:10;101589.03;;;7.61;100.00
80180;BME280;69505;52.134;5.438;2023-11-21T06:22:41;101593.41;;;7.62;100.00
80180;BME280;69505;52.134;5.438;2023-11-21T06:25:09;101598.53;;;7.65;100.00
80180;BME280;69505;52.134;5.438;2023-11-21T06:27:42;101596.66;;;7.67;100.00
80180;BME280;69505;52.134;5.438;2023-11-21T06:30:09;101600.84;;;7.71;100.00
80180;BME280;69505;52.134;5.438;2023-11-21T06:32:36;101600.66;;;7.75;100.00
80180;BME280;69505;52.134;5.438;2023-11-21T06:35:03;101605.03;;;7.76;100.00
80180;BME280;69505;52.134;5.438;2023-11-21T06:37:31;101601.44;;;7.77;100.00
80180;BME280;69505;52.134;5.438;2023-11-21T06:39:59;101603.16;;;7.78;100.00
80180;BME280;69505;52.134;5.438;2023-11-21T06:42:26;101613.56;;;7.81;100.00
80180;BME280;69505;52.134;5.438;2023-11-21T06:44:54;101615.31;;;7.82;100.00
80180;BME280;69505;52.134;5.438;2023-11-21T06:47:23;101616.06;;;7.84;100.00
80180;BME280;69505;52.134;5.438;2023-11-21T06:49:54;101616.06;;;7.84;100.00
80180;BME280;69505;52.134;5.438;2023-11-21T06:52:21;101618.53;;;7.87;100.00
80180;BME280;69505;52.134;5.438;2023-11-21T06:54:48;101629.91;;;7.89;100.00
80180;BME280;69505;52.134;5.438;2023-11-21T06:57:18;101622.72;;;7.91;100.00
80180;BME280;69505;52.134;5.438;2023-11-21T06:59:44;101629.44;;;7.98;100.00
80180;BME280;69505;52.134;5.438;2023-11-21T07:02:11;101629.50;;;7.97;100.00
80180;BME280;69505;52.134;5.438;2023-11-21T07:04:38;101636.34;;;8.01;100.00
80180;BME280;69505;52.134;5.438;2023-11-21T07:07:06;101641.56;;;8.02;100.00
80180;BME280;69505;52.134;5.438;2023-11-21T07:09:35;101643.94;;;8.07;100.00
80180;BME280;69505;52.134;5.438;2023-11-21T07:12:17;101651.63;;;8.11;100.00
80180;BME280;69505;52.134;5.438;2023-11-21T07:14:44;101657.50;;;8.17;100.00
80180;BME280;69505;52.134;5.438;2023-11-21T07:17:11;101663.44;;;8.22;100.00
80180;BME280;69505;52.134;5.438;2023-11-21T07:19:38;101665.06;;;8.24;100.00
80180;BME280;69505;52.134;5.438;2023-11-21T07:22:06;101672.84;;;8.27;100.00
80180;BME280;69505;52.134;5.438;2023-11-21T07:24:32;101673.69;;;8.28;100.00
80180;BME280;69505;52.134;5.438;2023-11-21T07:26:59;101673.50;;;8.31;100.00
80180;BME280;69505;52.134;5.438;2023-11-21T07:29:25;101676.94;;;8.33;100.00
80180;BME280;69505;52.134;5.438;2023-11-21T07:31:53;101682.84;;;8.38;100.00
80180;BME280;69505;52.134;5.438;2023-11-21T07:34:20;101673.03;;;8.40;100.00
80180;BME280;69505;52.134;5.438;2023-11-21T07:36:47;101681.59;;;8.45;100.00
80180;BME280;69505;52.134;5.438;2023-11-21T07:39:14;101677.84;;;8.49;100.00
80180;BME280;69505;52.134;5.438;2023-11-21T07:41:43;101678.53;;;8.53;100.00
80180;BME280;69505;52.134;5.438;2023-11-21T07:44:16;101687.25;;;8.55;100.00
80180;BME280;69505;52.134;5.438;2023-11-21T07:46:43;101685.53;;;8.54;100.00
80180;BME280;69505;52.134;5.438;2023-11-21T07:49:11;101692.38;;;8.58;100.00
80180;BME280;69505;52.134;5.438;2023-11-21T07:51:38;101689.72;;;8.58;100.00
80180;BME280;69505;52.134;5.438;2023-11-21T07:54:05;101700.06;;;8.63;100.00
80180;BME280;69505;52.134;5.438;2023-11-21T07:56:32;101699.72;;;8.69;100.00
80180;BME280;69505;52.134;5.438;2023-11-21T07:58:58;101708.38;;;8.72;100.00
80180;BME280;69505;52.134;5.438;2023-11-21T08:01:25;101705.72;;;8.72;100.00
80180;BME280;69505;52.134;5.438;2023-11-21T08:03:51;101716.03;;;8.77;100.00
80180;BME280;69505;52.134;5.438;2023-11-21T08:06:19;101721.00;;;8.83;100.00
80180;BME280;69505;52.134;5.438;2023-11-21T08:08:45;101728.63;;;8.89;100.00
80180;BME280;69505;52.134;5.438;2023-11-21T08:11:12;101728.53;;;8.91;100.00
80180;BME280;69505;52.134;5.438;2023-11-21T08:13:39;101737.78;;;9.00;100.00
80180;BME280;69505;52.134;5.438;2023-11-21T08:16:06;101744.41;;;9.07;100.00
80180;BME280;69505;52.134;5.438;2023-11-21T08:18:34;101742.66;;;9.07;100.00
80180;BME280;69505;52.134;5.438;2023-11-21T08:21:01;101754.59;;;9.14;100.00
80180;BME280;69505;52.134;5.438;2023-11-21T08:23:29;101764.00;;;9.20;100.00
80180;BME280;69505;52.134;5.438;2023-11-21T08:25:56;101762.22;;;9.21;100.00
80180;BME280;69505;52.134;5.438;2023-11-21T08:28:23;101771.69;;;9.25;100.00
80180;BME280;69505;52.134;5.438;2023-11-21T08:30:52;101768.97;;;9.26;100.00
80180;BME280;69505;52.134;5.438;2023-11-21T08:33:20;101766.56;;;9.22;100.00
80180;BME280;69505;52.134;5.438;2023-11-21T08:35:47;101782.31;;;9.25;100.00
80180;BME280;69505;52.134;5.438;2023-11-21T08:38:13;101791.19;;;9.24;100.00
80180;BME280;69505;52.134;5.438;2023-11-21T08:40:40;101800.00;;;9.24;100.00
80180;BME280;69505;52.134;5.438;2023-11-21T08:43:07;101799.06;;;9.25;100.00
80180;BME280;69505;52.134;5.438;2023-11-21T08:45:34;101799.06;;;9.25;100.00
80180;BME280;69505;52.134;5.438;2023-11-21T08:48:01;101814.63;;;9.31;100.00
80180;BME280;69505;52.134;5.438;2023-11-21T08:50:28;101811.03;;;9.32;100.00
80180;BME280;69505;52.134;5.438;2023-11-21T08:52:55;101809.16;;;9.34;100.00
80180;BME280;69505;52.134;5.438;2023-11-21T08:55:22;101817.88;;;9.37;100.00
80180;BME280;69505;52.134;5.438;2023-11-21T08:57:48;101816.16;;;9.35;100.00
80180;BME280;69505;52.134;5.438;2023-11-21T09:00:15;101819.59;;;9.38;100.00
80180;BME280;69505;52.134;5.438;2023-11-21T09:02:44;101806.91;;;9.43;100.00
80180;BME280;69505;52.134;5.438;2023-11-21T09:05:11;101807.25;;;9.52;100.00
80180;BME280;69505;52.134;5.438;2023-11-21T09:07:39;101807.25;;;9.68;100.00
80180;BME280;69505;52.134;5.438;2023-11-21T09:10:08;101827.75;;;9.81;100.00
80180;BME280;69505;52.134;5.438;2023-11-21T09:12:36;101839.88;;;9.85;100.00
80180;BME280;69505;52.134;5.438;2023-11-21T09:15:07;101838.25;;;9.82;100.00
80180;BME280;69505;52.134;5.438;2023-11-21T09:17:34;101855.22;;;9.80;100.00
80180;BME280;69505;52.134;5.438;2023-11-21T09:20:02;101852.06;;;9.73;100.00
80180;BME280;69505;52.134;5.438;2023-11-21T09:22:32;101851.38;;;9.69;100.00
80180;BME280;69505;52.134;5.438;2023-11-21T09:24:58;101856.59;;;9.71;100.00
80180;BME280;69505;52.134;5.438;2023-11-21T09:27:25;101858.41;;;9.70;100.00
80180;BME280;69505;52.134;5.438;2023-11-21T09:29:52;101869.03;;;9.70;100.00
80180;BME280;69505;52.134;5.438;2023-11-21T09:32:20;101869.94;;;9.69;100.00
80180;BME280;69505;52.134;5.438;2023-11-21T09:34:49;101869.03;;;9.70;100.00
80180;BME280;69505;52.134;5.438;2023-11-21T09:37:16;101883.13;;;9.71;100.00
80180;BME280;69505;52.134;5.438;2023-11-21T09:39:43;101887.66;;;9.69;100.00
80180;BME280;69505;52.134;5.438;2023-11-21T09:42:20;101885.09;;;9.67;100.00
80180;BME280;69505;52.134;5.438;2023-11-21T09:45:24;101900.44;;;9.62;100.00
80180;BME280;69505;52.134;5.438;2023-11-21T09:47:55;101898.13;;;9.56;100.00
80180;BME280;69505;52.134;5.438;2023-11-21T09:50:23;101909.66;;;9.55;100.00
80180;BME280;69505;52.134;5.438;2023-11-21T09:53:05;101911.72;;;9.50;100.00
80180;BME280;69505;52.134;5.438;2023-11-21T09:55:37;101916.25;;;9.48;100.00
80180;BME280;69505;52.134;5.438;2023-11-21T09:58:08;101912.47;;;9.52;100.00
80180;BME280;69505;52.134;5.438;2023-11-21T10:00:43;101915.72;;;9.57;100.00
80180;BME280;69505;52.134;5.438;2023-11-21T10:03:11;101922.41;;;9.64;100.00
80180;BME280;69505;52.134;5.438;2023-11-21T10:05:39;101919.00;;;9.62;100.00
80180;BME280;69505;52.134;5.438;2023-11-21T10:08:09;101918.38;;;9.57;100.00
80180;BME280;69505;52.134;5.438;2023-11-21T10:10:38;101926.66;;;9.51;100.00
80180;BME280;69505;52.134;5.438;2023-11-21T10:13:13;101929.50;;;9.48;100.00
80180;BME280;69505;52.134;5.438;2023-11-21T10:15:44;101936.75;;;9.44;100.00
80180;BME280;69505;52.134;5.438;2023-11-21T10:18:17;101938.63;;;9.42;100.00
80180;BME280;69505;52.134;5.438;2023-11-21T10:20:44;101944.66;;;9.46;100.00
80180;BME280;69505;52.134;5.438;2023-11-21T10:23:20;101952.34;;;9.50;100.00
80180;BME280;69505;52.134;5.438;2023-11-21T10:25:48;101956.22;;;9.61;100.00
80180;BME280;69505;52.134;5.438;2023-11-21T10:28:16;101956.72;;;9.67;100.00
80180;BME280;69505;52.134;5.438;2023-11-21T10:30:42;101951.94;;;9.74;100.00
80180;BME280;69505;52.134;5.438;2023-11-21T10:33:10;101963.84;;;9.83;100.00
80180;BME280;69505;52.134;5.438;2023-11-21T10:35:44;101960.25;;;9.84;100.00
80180;BME280;69505;52.134;5.438;2023-11-21T10:38:13;101967.78;;;9.75;100.00
80180;BME280;69505;52.134;5.438;2023-11-21T10:40:41;101973.75;;;9.63;100.00
80180;BME280;69505;52.134;5.438;2023-11-21T10:43:09;101985.56;;;9.58;100.00
80180;BME280;69505;52.134;5.438;2023-11-21T10:45:39;101991.97;;;9.53;100.00
80180;BME280;69505;52.134;5.438;2023-11-21T10:48:10;101994.94;;;9.47;100.00
80180;BME280;69505;52.134;5.438;2023-11-21T10:50:38;102006.66;;;9.43;100.00
80180;BME280;69505;52.134;5.438;2023-11-21T10:53:05;102011.00;;;9.44;100.00
80180;BME280;69505;52.134;5.438;2023-11-21T10:55:33;102014.88;;;9.39;100.00
80180;BME280;69505;52.134;5.438;2023-11-21T10:58:02;102012.38;;;9.35;100.00
80180;BME280;69505;52.134;5.438;2023-11-21T11:00:33;102024.69;;;9.37;100.00
80180;BME280;69505;52.134;5.438;2023-11-21T11:03:00;102024.69;;;9.37;100.00
80180;BME280;69505;52.134;5.438;2023-11-21T11:05:29;102022.13;;;9.35;100.00
80180;BME280;69505;52.134;5.438;2023-11-21T11:08:06;102023.66;;;9.39;100.00
80180;BME280;69505;52.134;5.438;2023-11-21T11:10:34;102033.25;;;9.42;100.00
80180;BME280;69505;52.134;5.438;2023-11-21T11:13:01;102020.84;;;9.42;100.00
80180;BME280;69505;52.134;5.438;2023-11-21T11:15:28;102017.03;;;9.48;100.00
80180;BME280;69505;52.134;5.438;2023-11-21T11:17:55;102021.38;;;9.49;100.00
80180;BME280;69505;52.134;5.438;2023-11-21T11:20:28;102018.03;;;9.45;100.00
80180;BME280;69505;52.134;5.438;2023-11-21T11:26:12;102034.94;;;9.43;100.00
80180;BME280;69505;52.134;5.438;2023-11-21T11:34:23;102038.03;;;9.35;100.00
80180;BME280;69505;52.134;5.438;2023-11-21T11:37:02;102040.34;;;9.41;100.00
80180;BME280;69505;52.134;5.438;2023-11-21T11:39:41;102044.56;;;9.45;100.00
80180;BME280;69505;52.134;5.438;2023-11-21T11:42:14;102044.31;;;9.50;100.00
80180;BME280;69505;52.134;5.438;2023-11-21T11:47:28;102047.81;;;9.50;100.00
80180;BME280;69505;52.134;5.438;2023-11-21T11:52:38;102051.41;;;9.49;100.00
80180;BME280;69505;52.134;5.438;2023-11-21T11:55:08;102054.91;;;9.50;100.00
80180;BME280;69505;52.134;5.438;2023-11-21T11:57:37;102062.56;;;9.56;100.00
80180;BME280;69505;52.134;5.438;2023-11-21T12:02:54;102062.56;;;9.56;100.00
80180;BME280;69505;52.134;5.438;2023-11-21T12:05:21;102075.81;;;9.56;100.00
80180;BME280;69505;52.134;5.438;2023-11-21T12:07:50;102076.75;;;9.55;100.00
80180;BME280;69505;52.134;5.438;2023-11-21T12:10:21;102078.47;;;9.56;100.00
80180;BME280;69505;52.134;5.438;2023-11-21T12:12:53;102078.47;;;9.56;100.00
80180;BME280;69505;52.134;5.438;2023-11-21T12:15:21;102083.91;;;9.53;100.00
80180;BME280;69505;52.134;5.438;2023-11-21T12:17:49;102082.38;;;9.49;100.00
80180;BME280;69505;52.134;5.438;2023-11-21T12:20:19;102096.25;;;9.54;100.00
80180;BME280;69505;52.134;5.438;2023-11-21T12:22:47;102097.09;;;9.54;100.00
80180;BME280;69505;52.134;5.438;2023-11-21T12:25:32;102092.81;;;9.52;100.00
80180;BME280;69505;52.134;5.438;2023-11-21T12:28:00;102096.41;;;9.51;100.00
80180;BME280;69505;52.134;5.438;2023-11-21T12:30:28;102101.63;;;9.52;100.00
80180;BME280;69505;52.134;5.438;2023-11-21T12:32:58;102105.44;;;9.47;100.00
80180;BME280;69505;52.134;5.438;2023-11-21T12:35:27;102100.47;;;9.41;100.00
80180;BME280;69505;52.134;5.438;2023-11-21T12:37:55;102091.41;;;9.45;100.00
80180;BME280;69505;52.134;5.438;2023-11-21T12:40:23;102101.88;;;9.48;100.00
80180;BME280;69505;52.134;5.438;2023-11-21T12:42:52;102102.13;;;9.43;100.00
80180;BME280;69505;52.134;5.438;2023-11-21T12:45:27;102105.75;;;9.41;100.00
80180;BME280;69505;52.134;5.438;2023-11-21T12:48:05;102112.97;;;9.39;100.00
80180;BME280;69505;52.134;5.438;2023-11-21T12:50:36;102116.53;;;9.38;100.00
80180;BME280;69505;52.134;5.438;2023-11-21T12:53:05;102120.16;;;9.37;100.00
80180;BME280;69505;52.134;5.438;2023-11-21T12:55:33;102123.78;;;9.34;100.00
80180;BME280;69505;52.134;5.438;2023-11-21T12:58:01;102129.03;;;9.35;100.00
80180;BME280;69505;52.134;5.438;2023-11-21T13:00:42;102132.28;;;9.41;100.00
80180;BME280;69505;52.134;5.438;2023-11-21T13:03:11;102131.84;;;9.50;100.00
80180;BME280;69505;52.134;5.438;2023-11-21T13:05:40;102133.31;;;9.55;100.00
80180;BME280;69505;52.134;5.438;2023-11-21T13:08:14;102137.28;;;9.64;100.00
80180;BME280;69505;52.134;5.438;2023-11-21T13:10:45;102142.47;;;9.66;100.00
80180;BME280;69505;52.134;5.438;2023-11-21T13:13:15;102143.50;;;9.63;100.00